sensor_id;sensor_type;location;lat;lon;timestamp;temperature;humidity
216;HTU21D;70668;48.81286795;9.14184224;2024-03-06T00:00:08;6.19;98.58
216;HTU21D;70668;48.81286795;9.14184224;2024-03-06T00:02:39;6.22;98.77
216;HTU21D;70668;48.81286795;9.14184224;2024-03-06T00:05:08;6.15;99.03
216;HTU21D;70668;48.81286795;9.14184224;2024-03-06T00:07:36;6.28;98.38
216;HTU21D;70668;48.81286795;9.14184224;2024-03-06T00:10:06;6.23;98.42
216;HTU21D;70668;48.81286795;9.14184224;2024-03-06T00:12:34;6.20;99.00
216;HTU21D;70668;48.81286795;9.14184224;2024-03-06T00:15:03;6.28;99.05
216;HTU21D;70668;48.81286795;9.14184224;2024-03-06T00:17:32;6.20;99.26
216;HTU21D;70668;48.81286795;9.14184224;2024-03-06T00:20:04;6.22;99.24
216;HTU21D;70668;48.81286795;9.14184224;2024-03-06T00:22:34;6.23;99.17
216;HTU21D;70668;48.81286795;9.14184224;2024-03-06T00:25:04;6.14;99.40
216;HTU21D;70668;48.81286795;9.14184224;2024-03-06T00:27:34;6.21;99.58
216;HTU21D;70668;48.81286795;9.14184224;2024-03-06T00:30:02;6.26;99.12
216;HTU21D;70668;48.81286795;9.14184224;2024-03-06T00:32:29;6.37;99.16
216;HTU21D;70668;48.81286795;9.14184224;2024-03-06T00:34:57;6.40;98.71
216;HTU21D;70668;48.81286795;9.14184224;2024-03-06T00:37:28;6.51;98.56
216;HTU21D;70668;48.81286795;9.14184224;2024-03-06T00:39:57;6.53;98.96
216;HTU21D;70668;48.81286795;9.14184224;2024-03-06T00:42:25;6.59;98.05
216;HTU21D;70668;48.81286795;9.14184224;2024-03-06T00:44:54;6.54;98.72
216;HTU21D;70668;48.81286795;9.14184224;2024-03-06T00:47:22;6.54;98.73
216;HTU21D;70668;48.81286795;9.14184224;2024-03-06T00:49:51;6.48;100.22
216;HTU21D;70668;48.81286795;9.14184224;2024-03-06T00:52:19;6.41;100.92
216;HTU21D;70668;48.81286795;9.14184224;2024-03-06T00:54:50;6.54;98.83
216;HTU21D;70668;48.81286795;9.14184224;2024-03-06T00:57:19;6.51;100.19
216;HTU21D;70668;48.81286795;9.14184224;2024-03-06T00:59:47;6.64;99.43
216;HTU21D;70668;48.81286795;9.14184224;2024-03-06T01:02:16;6.60;99.36
216;HTU21D;70668;48.81286795;9.14184224;2024-03-06T01:04:44;6.65;98.90
216;HTU21D;70668;48.81286795;9.14184224;2024-03-06T01:07:13;6.43;101.80
216;HTU21D;70668;48.81286795;9.14184224;2024-03-06T01:09:41;6.43;101.48
216;HTU21D;70668;48.81286795;9.14184224;2024-03-06T01:12:12;6.45;101.67
216;HTU21D;70668;48.81286795;9.14184224;2024-03-06T01:14:41;6.63;101.73
216;HTU21D;70668;48.81286795;9.14184224;2024-03-06T01:17:10;6.24;102.59
216;HTU21D;70668;48.81286795;9.14184224;2024-03-06T01:19:38;6.39;101.97
216;HTU21D;70668;48.81286795;9.14184224;2024-03-06T01:22:04;6.33;102.71
216;HTU21D;70668;48.81286795;9.14184224;2024-03-06T01:24:33;6.35;102.71
216;HTU21D;70668;48.81286795;9.14184224;2024-03-06T01:27:02;6.39;102.38
216;HTU21D;70668;48.81286795;9.14184224;2024-03-06T01:29:33;6.22;103.16
216;HTU21D;70668;48.81286795;9.14184224;2024-03-06T01:32:01;6.37;103.34
216;HTU21D;70668;48.81286795;9.14184224;2024-03-06T01:34:30;6.41;102.70
216;HTU21D;70668;48.81286795;9.14184224;2024-03-06T01:36:59;6.22;103.18
216;HTU21D;70668;48.81286795;9.14184224;2024-03-06T01:39:27;6.30;102.57
216;HTU21D;70668;48.81286795;9.14184224;2024-03-06T01:41:56;6.28;102.52
216;HTU21D;70668;48.81286795;9.14184224;2024-03-06T01:44:24;6.16;102.53
216;HTU21D;70668;48.81286795;9.14184224;2024-03-06T01:46:55;6.33;102.64
216;HTU21D;70668;48.81286795;9.14184224;2024-03-06T01:49:26;6.21;103.48
216;HTU21D;70668;48.81286795;9.14184224;2024-03-06T01:51:56;6.06;104.25
216;HTU21D;70668;48.81286795;9.14184224;2024-03-06T01:54:26;6.11;103.88
216;HTU21D;70668;48.81286795;9.14184224;2024-03-06T01:56:55;6.22;103.33
216;HTU21D;70668;48.81286795;9.14184224;2024-03-06T01:59:26;6.14;104.18
216;HTU21D;70668;48.81286795;9.14184224;2024-03-06T02:01:57;6.25;102.05
216;HTU21D;70668;48.81286795;9.14184224;2024-03-06T02:04:27;6.23;102.83
216;HTU21D;70668;48.81286795;9.14184224;2024-03-06T02:06:56;6.14;103.47
216;HTU21D;70668;48.81286795;9.14184224;2024-03-06T02:09:25;6.23;103.41
216;HTU21D;70668;48.81286795;9.14184224;2024-03-06T02:11:53;6.40;102.17
216;HTU21D;70668;48.81286795;9.14184224;2024-03-06T02:14:23;6.25;101.80
216;HTU21D;70668;48.81286795;9.14184224;2024-03-06T02:16:52;6.15;102.53
216;HTU21D;70668;48.81286795;9.14184224;2024-03-06T02:19:23;6.14;103.04
216;HTU21D;70668;48.81286795;9.14184224;2024-03-06T02:21:55;6.33;103.26
216;HTU21D;70668;48.81286795;9.14184224;2024-03-06T02:24:23;6.36;103.54
216;HTU21D;70668;48.81286795;9.14184224;2024-03-06T02:26:52;6.64;101.90
216;HTU21D;70668;48.81286795;9.14184224;2024-03-06T02:29:23;6.84;100.31
216;HTU21D;70668;48.81286795;9.14184224;2024-03-06T02:31:51;6.51;101.48
216;HTU21D;70668;48.81286795;9.14184224;2024-03-06T02:34:20;6.45;100.35
216;HTU21D;70668;48.81286795;9.14184224;2024-03-06T02:36:50;6.49;100.43
216;HTU21D;70668;48.81286795;9.14184224;2024-03-06T02:39:22;6.42;101.12
216;HTU21D;70668;48.81286795;9.14184224;2024-03-06T02:41:50;6.44;100.78
216;HTU21D;70668;48.81286795;9.14184224;2024-03-06T02:44:19;6.42;101.25
216;HTU21D;70668;48.81286795;9.14184224;2024-03-06T02:46:48;6.30;101.68
216;HTU21D;70668;48.81286795;9.14184224;2024-03-06T02:49:17;6.41;101.83
216;HTU21D;70668;48.81286795;9.14184224;2024-03-06T02:51:46;6.12;102.76
216;HTU21D;70668;48.81286795;9.14184224;2024-03-06T02:54:15;6.15;103.78
216;HTU21D;70668;48.81286795;9.14184224;2024-03-06T02:56:46;5.97;104.01
216;HTU21D;70668;48.81286795;9.14184224;2024-03-06T02:59:14;6.08;104.01
216;HTU21D;70668;48.81286795;9.14184224;2024-03-06T03:01:43;5.89;104.67
216;HTU21D;70668;48.81286795;9.14184224;2024-03-06T03:04:12;6.14;103.50
216;HTU21D;70668;48.81286795;9.14184224;2024-03-06T03:06:41;5.97;104.50
216;HTU21D;70668;48.81286795;9.14184224;2024-03-06T03:09:09;6.05;103.44
216;HTU21D;70668;48.81286795;9.14184224;2024-03-06T03:11:39;6.22;103.44
216;HTU21D;70668;48.81286795;9.14184224;2024-03-06T03:14:10;5.89;104.21
216;HTU21D;70668;48.81286795;9.14184224;2024-03-06T03:16:39;6.19;102.82
216;HTU21D;70668;48.81286795;9.14184224;2024-03-06T03:19:07;6.16;103.40
216;HTU21D;70668;48.81286795;9.14184224;2024-03-06T03:21:36;6.16;102.99
216;HTU21D;70668;48.81286795;9.14184224;2024-03-06T03:24:06;5.99;102.96
216;HTU21D;70668;48.81286795;9.14184224;2024-03-06T03:26:34;6.09;102.80
216;HTU21D;70668;48.81286795;9.14184224;2024-03-06T03:29:03;6.09;103.02
216;HTU21D;70668;48.81286795;9.14184224;2024-03-06T03:31:34;6.09;102.66
216;HTU21D;70668;48.81286795;9.14184224;2024-03-06T03:34:04;6.06;103.14
216;HTU21D;70668;48.81286795;9.14184224;2024-03-06T03:36:34;6.07;102.96
216;HTU21D;70668;48.81286795;9.14184224;2024-03-06T03:39:03;6.04;103.05
216;HTU21D;70668;48.81286795;9.14184224;2024-03-06T03:41:33;6.14;103.34
216;HTU21D;70668;48.81286795;9.14184224;2024-03-06T03:44:02;6.11;102.94
216;HTU21D;70668;48.81286795;9.14184224;2024-03-06T03:46:30;6.17;102.35
216;HTU21D;70668;48.81286795;9.14184224;2024-03-06T03:49:01;6.16;103.08
216;HTU21D;70668;48.81286795;9.14184224;2024-03-06T03:51:30;6.16;102.31
216;HTU21D;70668;48.81286795;9.14184224;2024-03-06T03:53:58;6.07;103.54
216;HTU21D;70668;48.81286795;9.14184224;2024-03-06T03:56:27;5.98;103.01
216;HTU21D;70668;48.81286795;9.14184224;2024-03-06T03:58:56;5.95;103.81
216;HTU21D;70668;48.81286795;9.14184224;2024-03-06T04:01:24;6.01;103.46
216;HTU21D;70668;48.81286795;9.14184224;2024-03-06T04:03:53;6.08;103.57
216;HTU21D;70668;48.81286795;9.14184224;2024-03-06T04:06:24;6.15;103.80
216;HTU21D;70668;48.81286795;9.14184224;2024-03-06T04:08:53;6.08;104.24
216;HTU21D;70668;48.81286795;9.14184224;2024-03-06T04:11:21;6.09;103.61
216;HTU21D;70668;48.81286795;9.14184224;2024-03-06T04:13:50;5.98;104.10
216;HTU21D;70668;48.81286795;9.14184224;2024-03-06T04:16:18;6.00;104.50
216;HTU21D;70668;48.81286795;9.14184224;2024-03-06T04:18:47;5.86;104.69
216;HTU21D;70668;48.81286795;9.14184224;2024-03-06T04:21:15;5.86;105.12
216;HTU21D;70668;48.81286795;9.14184224;2024-03-06T04:23:46;6.08;105.09
216;HTU21D;70668;48.81286795;9.14184224;2024-03-06T04:26:15;5.93;105.32
216;HTU21D;70668;48.81286795;9.14184224;2024-03-06T04:28:44;5.90;106.00
216;HTU21D;70668;48.81286795;9.14184224;2024-03-06T04:31:13;5.81;106.43
216;HTU21D;70668;48.81286795;9.14184224;2024-03-06T04:33:41;5.89;106.42
216;HTU21D;70668;48.81286795;9.14184224;2024-03-06T04:36:10;5.85;106.66
216;HTU21D;70668;48.81286795;9.14184224;2024-03-06T04:38:38;5.84;106.61
216;HTU21D;70668;48.81286795;9.14184224;2024-03-06T04:41:09;5.82;106.75
216;HTU21D;70668;48.81286795;9.14184224;2024-03-06T04:43:38;5.75;107.05
216;HTU21D;70668;48.81286795;9.14184224;2024-03-06T04:46:12;5.91;107.12
216;HTU21D;70668;48.81286795;9.14184224;2024-03-06T04:48:40;5.80;107.28
216;HTU21D;70668;48.81286795;9.14184224;2024-03-06T04:51:09;5.66;107.57
216;HTU21D;70668;48.81286795;9.14184224;2024-03-06T04:53:38;5.81;107.64
216;HTU21D;70668;48.81286795;9.14184224;2024-03-06T04:56:10;5.79;107.65
216;HTU21D;70668;48.81286795;9.14184224;2024-03-06T04:58:39;5.83;107.85
216;HTU21D;70668;48.81286795;9.14184224;2024-03-06T05:01:10;5.87;107.30
216;HTU21D;70668;48.81286795;9.14184224;2024-03-06T05:03:38;5.84;107.17
216;HTU21D;70668;48.81286795;9.14184224;2024-03-06T05:06:07;5.91;107.11
216;HTU21D;70668;48.81286795;9.14184224;2024-03-06T05:08:35;5.84;107.37
216;HTU21D;70668;48.81286795;9.14184224;2024-03-06T05:11:04;6.09;107.23
216;HTU21D;70668;48.81286795;9.14184224;2024-03-06T05:13:36;6.12;106.40
216;HTU21D;70668;48.81286795;9.14184224;2024-03-06T05:16:05;5.95;107.78
216;HTU21D;70668;48.81286795;9.14184224;2024-03-06T05:18:34;6.11;107.17
216;HTU21D;70668;48.81286795;9.14184224;2024-03-06T05:21:04;5.82;107.49
216;HTU21D;70668;48.81286795;9.14184224;2024-03-06T05:23:32;5.80;108.39
216;HTU21D;70668;48.81286795;9.14184224;2024-03-06T05:26:01;5.97;109.08
216;HTU21D;70668;48.81286795;9.14184224;2024-03-06T05:28:30;6.12;108.46
216;HTU21D;70668;48.81286795;9.14184224;2024-03-06T05:31:01;6.08;107.80
216;HTU21D;70668;48.81286795;9.14184224;2024-03-06T05:33:42;6.04;108.35
216;HTU21D;70668;48.81286795;9.14184224;2024-03-06T05:36:10;6.04;108.16
216;HTU21D;70668;48.81286795;9.14184224;2024-03-06T05:38:39;6.14;107.99
216;HTU21D;70668;48.81286795;9.14184224;2024-03-06T05:41:07;6.04;108.73
216;HTU21D;70668;48.81286795;9.14184224;2024-03-06T05:43:36;6.12;108.28
216;HTU21D;70668;48.81286795;9.14184224;2024-03-06T05:46:09;6.01;108.13
216;HTU21D;70668;48.81286795;9.14184224;2024-03-06T05:48:37;6.01;108.78
216;HTU21D;70668;48.81286795;9.14184224;2024-03-06T05:51:06;6.08;108.92
216;HTU21D;70668;48.81286795;9.14184224;2024-03-06T05:53:38;6.04;108.72
216;HTU21D;70668;48.81286795;9.14184224;2024-03-06T05:56:08;5.85;109.11
216;HTU21D;70668;48.81286795;9.14184224;2024-03-06T05:58:36;5.78;109.23
216;HTU21D;70668;48.81286795;9.14184224;2024-03-06T06:01:05;5.84;109.24
216;HTU21D;70668;48.81286795;9.14184224;2024-03-06T06:03:36;5.95;109.61
216;HTU21D;70668;48.81286795;9.14184224;2024-03-06T06:06:05;5.89;109.00
216;HTU21D;70668;48.81286795;9.14184224;2024-03-06T06:08:34;6.07;109.68
216;HTU21D;70668;48.81286795;9.14184224;2024-03-06T06:11:03;5.93;108.72
216;HTU21D;70668;48.81286795;9.14184224;2024-03-06T06:13:33;6.07;109.06
216;HTU21D;70668;48.81286795;9.14184224;2024-03-06T06:16:02;6.06;108.89
216;HTU21D;70668;48.81286795;9.14184224;2024-03-06T06:18:30;6.06;108.91
216;HTU21D;70668;48.81286795;9.14184224;2024-03-06T06:21:02;6.07;108.58
216;HTU21D;70668;48.81286795;9.14184224;2024-03-06T06:23:33;6.19;108.59
216;HTU21D;70668;48.81286795;9.14184224;2024-03-06T06:26:01;6.16;108.29
216;HTU21D;70668;48.81286795;9.14184224;2024-03-06T06:28:30;6.25;108.07
216;HTU21D;70668;48.81286795;9.14184224;2024-03-06T06:30:58;6.21;109.07
216;HTU21D;70668;48.81286795;9.14184224;2024-03-06T06:33:27;6.38;108.70
216;HTU21D;70668;48.81286795;9.14184224;2024-03-06T06:35:55;6.36;108.62
216;HTU21D;70668;48.81286795;9.14184224;2024-03-06T06:38:26;6.27;108.61
216;HTU21D;70668;48.81286795;9.14184224;2024-03-06T06:40:55;6.31;107.99
216;HTU21D;70668;48.81286795;9.14184224;2024-03-06T06:43:24;6.19;107.44
216;HTU21D;70668;48.81286795;9.14184224;2024-03-06T06:45:52;6.21;107.33
216;HTU21D;70668;48.81286795;9.14184224;2024-03-06T06:48:21;6.12;108.03
216;HTU21D;70668;48.81286795;9.14184224;2024-03-06T06:50:49;6.25;107.66
216;HTU21D;70668;48.81286795;9.14184224;2024-03-06T06:53:18;6.26;107.36
216;HTU21D;70668;48.81286795;9.14184224;2024-03-06T06:55:49;6.16;106.95
216;HTU21D;70668;48.81286795;9.14184224;2024-03-06T06:58:17;6.17;106.50
216;HTU21D;70668;48.81286795;9.14184224;2024-03-06T07:00:46;6.11;107.11
216;HTU21D;70668;48.81286795;9.14184224;2024-03-06T07:03:15;5.90;107.31
216;HTU21D;70668;48.81286795;9.14184224;2024-03-06T07:05:43;6.17;107.79
216;HTU21D;70668;48.81286795;9.14184224;2024-03-06T07:08:12;6.15;106.90
216;HTU21D;70668;48.81286795;9.14184224;2024-03-06T07:10:40;6.09;107.62
216;HTU21D;70668;48.81286795;9.14184224;2024-03-06T07:13:11;6.20;107.03
216;HTU21D;70668;48.81286795;9.14184224;2024-03-06T07:15:40;6.31;107.18
216;HTU21D;70668;48.81286795;9.14184224;2024-03-06T07:18:08;6.25;106.53
216;HTU21D;70668;48.81286795;9.14184224;2024-03-06T07:20:39;6.29;107.58
216;HTU21D;70668;48.81286795;9.14184224;2024-03-06T07:23:18;6.19;106.58
216;HTU21D;70668;48.81286795;9.14184224;2024-03-06T07:25:47;6.29;106.88
216;HTU21D;70668;48.81286795;9.14184224;2024-03-06T07:28:16;6.02;106.91
216;HTU21D;70668;48.81286795;9.14184224;2024-03-06T07:30:46;6.00;107.33
216;HTU21D;70668;48.81286795;9.14184224;2024-03-06T07:33:15;5.96;107.43
216;HTU21D;70668;48.81286795;9.14184224;2024-03-06T07:35:43;5.92;107.83
216;HTU21D;70668;48.81286795;9.14184224;2024-03-06T07:38:12;5.96;108.42
216;HTU21D;70668;48.81286795;9.14184224;2024-03-06T07:40:43;6.08;108.54
216;HTU21D;70668;48.81286795;9.14184224;2024-03-06T07:43:12;6.11;108.51
216;HTU21D;70668;48.81286795;9.14184224;2024-03-06T07:45:41;6.01;108.19
216;HTU21D;70668;48.81286795;9.14184224;2024-03-06T07:48:09;6.17;107.88
216;HTU21D;70668;48.81286795;9.14184224;2024-03-06T07:50:38;6.09;107.84
216;HTU21D;70668;48.81286795;9.14184224;2024-03-06T07:53:07;6.14;107.73
216;HTU21D;70668;48.81286795;9.14184224;2024-03-06T07:55:35;6.20;106.79
216;HTU21D;70668;48.81286795;9.14184224;2024-03-06T07:58:07;6.27;107.53
216;HTU21D;70668;48.81286795;9.14184224;2024-03-06T08:00:36;6.10;107.95
216;HTU21D;70668;48.81286795;9.14184224;2024-03-06T08:03:04;5.93;107.88
216;HTU21D;70668;48.81286795;9.14184224;2024-03-06T08:05:33;5.99;108.40
216;HTU21D;70668;48.81286795;9.14184224;2024-03-06T08:08:03;5.90;108.21
216;HTU21D;70668;48.81286795;9.14184224;2024-03-06T08:10:32;6.08;108.14
216;HTU21D;70668;48.81286795;9.14184224;2024-03-06T08:13:01;6.02;108.46
216;HTU21D;70668;48.81286795;9.14184224;2024-03-06T08:15:32;6.19;108.43
216;HTU21D;70668;48.81286795;9.14184224;2024-03-06T08:18:00;6.30;108.27
216;HTU21D;70668;48.81286795;9.14184224;2024-03-06T08:20:29;6.30;107.97
216;HTU21D;70668;48.81286795;9.14184224;2024-03-06T08:22:58;6.29;107.66
216;HTU21D;70668;48.81286795;9.14184224;2024-03-06T08:25:27;6.29;107.63
216;HTU21D;70668;48.81286795;9.14184224;2024-03-06T08:27:58;6.25;107.43
216;HTU21D;70668;48.81286795;9.14184224;2024-03-06T08:30:28;6.13;107.88
216;HTU21D;70668;48.81286795;9.14184224;2024-03-06T08:33:00;6.24;108.69
216;HTU21D;70668;48.81286795;9.14184224;2024-03-06T08:35:29;6.14;107.70
216;HTU21D;70668;48.81286795;9.14184224;2024-03-06T08:37:58;6.25;108.49
216;HTU21D;70668;48.81286795;9.14184224;2024-03-06T08:40:42;6.35;108.29
216;HTU21D;70668;48.81286795;9.14184224;2024-03-06T08:43:11;6.34;108.08
216;HTU21D;70668;48.81286795;9.14184224;2024-03-06T08:45:41;6.46;107.45
216;HTU21D;70668;48.81286795;9.14184224;2024-03-06T08:48:12;6.38;107.49
216;HTU21D;70668;48.81286795;9.14184224;2024-03-06T08:50:40;6.38;107.53
216;HTU21D;70668;48.81286795;9.14184224;2024-03-06T08:53:09;6.21;107.52
216;HTU21D;70668;48.81286795;9.14184224;2024-03-06T08:55:39;6.15;108.32
216;HTU21D;70668;48.81286795;9.14184224;2024-03-06T08:58:07;6.22;108.14
216;HTU21D;70668;48.81286795;9.14184224;2024-03-06T09:00:36;6.23;107.92
216;HTU21D;70668;48.81286795;9.14184224;2024-03-06T09:03:05;6.22;108.59
216;HTU21D;70668;48.81286795;9.14184224;2024-03-06T09:05:36;6.17;108.17
216;HTU21D;70668;48.81286795;9.14184224;2024-03-06T09:08:05;6.29;108.08
216;HTU21D;70668;48.81286795;9.14184224;2024-03-06T09:10:35;6.30;107.62
216;HTU21D;70668;48.81286795;9.14184224;2024-03-06T09:13:04;6.33;107.17
216;HTU21D;70668;48.81286795;9.14184224;2024-03-06T09:15:33;6.55;107.29
216;HTU21D;70668;48.81286795;9.14184224;2024-03-06T09:18:01;6.46;107.69
216;HTU21D;70668;48.81286795;9.14184224;2024-03-06T09:20:30;6.37;107.65
216;HTU21D;70668;48.81286795;9.14184224;2024-03-06T09:23:01;6.40;107.46
216;HTU21D;70668;48.81286795;9.14184224;2024-03-06T09:25:29;6.60;107.20
216;HTU21D;70668;48.81286795;9.14184224;2024-03-06T09:27:58;6.49;107.30
216;HTU21D;70668;48.81286795;9.14184224;2024-03-06T09:30:30;6.37;107.75
216;HTU21D;70668;48.81286795;9.14184224;2024-03-06T09:32:58;6.37;107.62
216;HTU21D;70668;48.81286795;9.14184224;2024-03-06T09:35:27;6.48;107.39
216;HTU21D;70668;48.81286795;9.14184224;2024-03-06T09:37:55;6.44;107.93
216;HTU21D;70668;48.81286795;9.14184224;2024-03-06T09:40:27;6.38;107.61
216;HTU21D;70668;48.81286795;9.14184224;2024-03-06T09:42:57;6.44;107.04
216;HTU21D;70668;48.81286795;9.14184224;2024-03-06T09:45:26;6.26;107.37
216;HTU21D;70668;48.81286795;9.14184224;2024-03-06T09:47:54;6.19;107.89
216;HTU21D;70668;48.81286795;9.14184224;2024-03-06T09:50:24;6.33;107.93
216;HTU21D;70668;48.81286795;9.14184224;2024-03-06T09:52:54;6.39;108.50
216;HTU21D;70668;48.81286795;9.14184224;2024-03-06T09:55:23;6.28;108.19
216;HTU21D;70668;48.81286795;9.14184224;2024-03-06T09:57:55;6.19;108.23
216;HTU21D;70668;48.81286795;9.14184224;2024-03-06T10:00:24;6.34;107.91
216;HTU21D;70668;48.81286795;9.14184224;2024-03-06T10:02:57;6.48;107.22
216;HTU21D;70668;48.81286795;9.14184224;2024-03-06T10:05:26;6.50;107.69
216;HTU21D;70668;48.81286795;9.14184224;2024-03-06T10:07:56;6.43;107.99
216;HTU21D;70668;48.81286795;9.14184224;2024-03-06T10:10:25;6.46;107.16
216;HTU21D;70668;48.81286795;9.14184224;2024-03-06T10:12:56;6.40;107.85
216;HTU21D;70668;48.81286795;9.14184224;2024-03-06T10:15:26;6.53;107.97
216;HTU21D;70668;48.81286795;9.14184224;2024-03-06T10:18:10;6.56;106.50
216;HTU21D;70668;48.81286795;9.14184224;2024-03-06T10:20:38;6.59;108.01
216;HTU21D;70668;48.81286795;9.14184224;2024-03-06T10:23:09;6.60;106.96
216;HTU21D;70668;48.81286795;9.14184224;2024-03-06T10:25:38;6.75;107.07
216;HTU21D;70668;48.81286795;9.14184224;2024-03-06T10:28:09;6.64;107.56
216;HTU21D;70668;48.81286795;9.14184224;2024-03-06T10:30:40;6.69;107.56
216;HTU21D;70668;48.81286795;9.14184224;2024-03-06T10:33:10;6.66;108.04
216;HTU21D;70668;48.81286795;9.14184224;2024-03-06T10:35:40;6.59;107.49
216;HTU21D;70668;48.81286795;9.14184224;2024-03-06T10:38:10;6.71;107.08
216;HTU21D;70668;48.81286795;9.14184224;2024-03-06T10:40:40;6.76;108.34
216;HTU21D;70668;48.81286795;9.14184224;2024-03-06T10:43:12;6.66;108.65
216;HTU21D;70668;48.81286795;9.14184224;2024-03-06T10:45:47;6.79;108.10
216;HTU21D;70668;48.81286795;9.14184224;2024-03-06T10:48:17;6.71;108.31
216;HTU21D;70668;48.81286795;9.14184224;2024-03-06T10:50:46;6.67;108.89
216;HTU21D;70668;48.81286795;9.14184224;2024-03-06T10:53:16;6.70;108.72
216;HTU21D;70668;48.81286795;9.14184224;2024-03-06T10:55:45;6.68;108.75
216;HTU21D;70668;48.81286795;9.14184224;2024-03-06T10:58:16;6.96;108.66
216;HTU21D;70668;48.81286795;9.14184224;2024-03-06T11:00:47;6.71;107.75
216;HTU21D;70668;48.81286795;9.14184224;2024-03-06T11:03:16;6.86;107.11
216;HTU21D;70668;48.81286795;9.14184224;2024-03-06T11:05:45;6.79;107.35
216;HTU21D;70668;48.81286795;9.14184224;2024-03-06T11:08:16;6.81;108.59
216;HTU21D;70668;48.81286795;9.14184224;2024-03-06T11:10:44;6.91;107.69
216;HTU21D;70668;48.81286795;9.14184224;2024-03-06T11:13:25;6.71;107.78
216;HTU21D;70668;48.81286795;9.14184224;2024-03-06T11:15:58;6.86;108.52
216;HTU21D;70668;48.81286795;9.14184224;2024-03-06T11:18:42;6.60;109.07
216;HTU21D;70668;48.81286795;9.14184224;2024-03-06T11:21:30;6.66;108.83
216;HTU21D;70668;48.81286795;9.14184224;2024-03-06T11:24:20;6.63;108.37
216;HTU21D;70668;48.81286795;9.14184224;2024-03-06T11:26:50;6.53;109.49
216;HTU21D;70668;48.81286795;9.14184224;2024-03-06T11:29:22;6.50;110.02
216;HTU21D;70668;48.81286795;9.14184224;2024-03-06T11:32:01;6.88;109.88
216;HTU21D;70668;48.81286795;9.14184224;2024-03-06T11:34:29;6.78;108.41
216;HTU21D;70668;48.81286795;9.14184224;2024-03-06T11:36:59;6.71;109.46
216;HTU21D;70668;48.81286795;9.14184224;2024-03-06T11:39:33;6.64;108.78
216;HTU21D;70668;48.81286795;9.14184224;2024-03-06T11:42:03;6.82;109.48
216;HTU21D;70668;48.81286795;9.14184224;2024-03-06T11:44:36;6.59;109.08
216;HTU21D;70668;48.81286795;9.14184224;2024-03-06T11:47:07;6.72;109.80
216;HTU21D;70668;48.81286795;9.14184224;2024-03-06T11:49:36;6.83;109.75
216;HTU21D;70668;48.81286795;9.14184224;2024-03-06T11:52:07;6.89;109.35
216;HTU21D;70668;48.81286795;9.14184224;2024-03-06T11:54:37;6.86;108.98
216;HTU21D;70668;48.81286795;9.14184224;2024-03-06T11:57:06;6.84;108.90
216;HTU21D;70668;48.81286795;9.14184224;2024-03-06T11:59:39;6.78;109.23
216;HTU21D;70668;48.81286795;9.14184224;2024-03-06T12:02:07;6.76;109.46
216;HTU21D;70668;48.81286795;9.14184224;2024-03-06T12:04:36;6.89;109.51
216;HTU21D;70668;48.81286795;9.14184224;2024-03-06T12:07:05;6.81;108.72
216;HTU21D;70668;48.81286795;9.14184224;2024-03-06T12:09:35;6.82;109.03
216;HTU21D;70668;48.81286795;9.14184224;2024-03-06T12:12:05;6.74;109.83
216;HTU21D;70668;48.81286795;9.14184224;2024-03-06T12:14:35;6.72;108.75
216;HTU21D;70668;48.81286795;9.14184224;2024-03-06T12:17:11;6.83;108.90
216;HTU21D;70668;48.81286795;9.14184224;2024-03-06T12:19:42;6.82;109.49
216;HTU21D;70668;48.81286795;9.14184224;2024-03-06T12:22:11;6.82;109.62
216;HTU21D;70668;48.81286795;9.14184224;2024-03-06T12:24:40;6.72;109.69
216;HTU21D;70668;48.81286795;9.14184224;2024-03-06T12:27:09;6.57;109.74
216;HTU21D;70668;48.81286795;9.14184224;2024-03-06T12:29:38;6.61;109.72
216;HTU21D;70668;48.81286795;9.14184224;2024-03-06T12:32:16;6.78;109.55
216;HTU21D;70668;48.81286795;9.14184224;2024-03-06T12:34:44;6.73;109.38
216;HTU21D;70668;48.81286795;9.14184224;2024-03-06T12:37:13;6.86;109.65
216;HTU21D;70668;48.81286795;9.14184224;2024-03-06T12:39:44;6.78;109.10
216;HTU21D;70668;48.81286795;9.14184224;2024-03-06T12:42:13;6.80;109.36
216;HTU21D;70668;48.81286795;9.14184224;2024-03-06T12:44:41;6.87;109.55
216;HTU21D;70668;48.81286795;9.14184224;2024-03-06T12:47:12;6.87;109.25
216;HTU21D;70668;48.81286795;9.14184224;2024-03-06T12:49:41;6.95;108.81
216;HTU21D;70668;48.81286795;9.14184224;2024-03-06T12:52:09;6.91;109.40
216;HTU21D;70668;48.81286795;9.14184224;2024-03-06T12:54:37;7.01;109.36
216;HTU21D;70668;48.81286795;9.14184224;2024-03-06T12:57:06;6.85;109.23
216;HTU21D;70668;48.81286795;9.14184224;2024-03-06T12:59:35;6.76;109.19
216;HTU21D;70668;48.81286795;9.14184224;2024-03-06T13:02:03;6.88;109.58
216;HTU21D;70668;48.81286795;9.14184224;2024-03-06T13:04:35;6.94;108.97
216;HTU21D;70668;48.81286795;9.14184224;2024-03-06T13:07:04;6.80;109.62
216;HTU21D;70668;48.81286795;9.14184224;2024-03-06T13:09:32;6.93;109.37
216;HTU21D;70668;48.81286795;9.14184224;2024-03-06T13:12:01;6.86;109.53
216;HTU21D;70668;48.81286795;9.14184224;2024-03-06T13:14:31;6.88;109.48
216;HTU21D;70668;48.81286795;9.14184224;2024-03-06T13:17:00;6.87;109.21
216;HTU21D;70668;48.81286795;9.14184224;2024-03-06T13:19:29;6.89;109.51
216;HTU21D;70668;48.81286795;9.14184224;2024-03-06T13:22:00;6.84;108.83
216;HTU21D;70668;48.81286795;9.14184224;2024-03-06T13:24:28;6.80;109.23
216;HTU21D;70668;48.81286795;9.14184224;2024-03-06T13:26:57;6.81;109.05
216;HTU21D;70668;48.81286795;9.14184224;2024-03-06T13:29:25;7.00;108.51
216;HTU21D;70668;48.81286795;9.14184224;2024-03-06T13:31:54;7.04;108.25
216;HTU21D;70668;48.81286795;9.14184224;2024-03-06T13:34:22;7.03;108.10
216;HTU21D;70668;48.81286795;9.14184224;2024-03-06T13:36:51;7.03;108.31
216;HTU21D;70668;48.81286795;9.14184224;2024-03-06T13:39:22;7.27;107.26
216;HTU21D;70668;48.81286795;9.14184224;2024-03-06T13:41:51;7.01;107.88
216;HTU21D;70668;48.81286795;9.14184224;2024-03-06T13:44:19;6.99;109.78
216;HTU21D;70668;48.81286795;9.14184224;2024-03-06T13:46:48;7.15;109.13